createdAt,value
2018-01-17T00:02:14.353Z,85.50
2018-01-17T00:04:42.806Z,85.70
2018-01-17T00:07:12.018Z,85.50
2018-01-17T00:09:42.128Z,85.70
2018-01-17T00:12:11.405Z,85.60
2018-01-17T00:14:39.913Z,85.60
2018-01-17T00:17:09.191Z,85.60
2018-01-17T00:19:37.726Z,85.60
2018-01-17T00:22:06.190Z,85.50
2018-01-17T00:24:34.677Z,85.60
2018-01-17T00:27:03.184Z,85.40
2018-01-17T00:29:31.683Z,85.50
2018-01-17T00:32:00.243Z,85.40
2018-01-17T00:34:28.762Z,85.40
2018-01-17T00:36:58.061Z,85.50
2018-01-17T00:39:27.311Z,85.40
2018-01-17T00:41:55.747Z,85.30
2018-01-17T00:44:24.194Z,85.50
2018-01-17T00:46:52.675Z,85.50
2018-01-17T00:49:21.135Z,85.40
2018-01-17T00:51:49.655Z,85.70
2018-01-17T00:54:18.256Z,85.80
2018-01-17T00:56:47.559Z,85.90
2018-01-17T00:59:16.014Z,85.90
2018-01-17T01:01:45.793Z,85.70
2018-01-17T01:04:14.451Z,85.70
2018-01-17T01:06:42.902Z,85.50
2018-01-17T01:09:11.375Z,85.10
2018-01-17T01:11:40.626Z,85.10
2018-01-17T01:14:09.116Z,85.10
2018-01-17T01:16:37.605Z,85.20
2018-01-17T01:19:05.736Z,85.20
2018-01-17T01:21:34.218Z,85.00
2018-01-17T01:24:02.682Z,85.10
2018-01-17T01:26:31.142Z,85.00
2018-01-17T01:29:00.408Z,85.20
2018-01-17T01:31:28.879Z,85.10
2018-01-17T01:33:57.339Z,85.10
2018-01-17T01:36:25.650Z,85.10
2018-01-17T01:38:54.220Z,84.90
2018-01-17T01:41:22.672Z,84.90
2018-01-17T01:43:51.162Z,84.80
2018-01-17T01:46:19.610Z,84.90
2018-01-17T01:48:59.163Z,85.00
2018-01-17T01:51:27.612Z,85.00
2018-01-17T01:53:56.819Z,84.90
2018-01-17T01:56:25.277Z,84.90
2018-01-17T01:58:54.493Z,85.20
2018-01-17T02:01:22.957Z,85.20
2018-01-17T02:03:52.171Z,85.20
2018-01-17T02:06:20.633Z,85.20
2018-01-17T02:08:49.855Z,85.00
2018-01-17T02:11:18.303Z,85.00
2018-01-17T02:13:47.585Z,85.10
2018-01-17T02:16:16.023Z,85.90
2018-01-17T02:18:45.306Z,85.30
2018-01-17T02:21:13.747Z,85.40
2018-01-17T02:23:42.228Z,85.60
2018-01-17T02:26:11.492Z,86.10
2018-01-17T02:28:39.940Z,85.70
2018-01-17T02:31:13.778Z,85.80
2018-01-17T02:33:44.381Z,86.00
2018-01-17T02:36:12.834Z,86.00
2018-01-17T02:38:42.072Z,86.10
2018-01-17T02:41:10.524Z,86.10
2018-01-17T02:43:38.965Z,86.10
2018-01-17T02:46:07.438Z,86.20
2018-01-17T02:48:35.902Z,86.10
2018-01-17T02:51:04.363Z,86.20
2018-01-17T02:53:32.815Z,86.20
2018-01-17T02:56:01.332Z,86.20
2018-01-17T02:58:29.812Z,86.20
2018-01-17T03:00:58.290Z,86.30
2018-01-17T03:03:26.740Z,85.90
2018-01-17T03:05:55.246Z,86.70
2018-01-17T03:08:23.836Z,85.80
2018-01-17T03:10:52.306Z,85.80
2018-01-17T03:13:20.760Z,85.80
2018-01-17T03:15:49.230Z,86.10
2018-01-17T03:18:18.463Z,86.10
2018-01-17T03:20:47.841Z,86.10
2018-01-17T03:23:17.082Z,85.90
2018-01-17T03:25:45.644Z,85.80
2018-01-17T03:28:14.774Z,85.80
2018-01-17T03:30:43.239Z,85.90
2018-01-17T03:33:11.684Z,86.00
2018-01-17T03:35:40.212Z,85.80
2018-01-17T03:38:08.867Z,85.80
2018-01-17T03:40:37.312Z,86.00
2018-01-17T03:43:05.786Z,85.90
2018-01-17T03:45:34.248Z,85.90
2018-01-17T03:48:03.476Z,86.00
2018-01-17T03:50:31.924Z,86.00
2018-01-17T03:53:00.961Z,85.90
2018-01-17T03:55:29.436Z,85.80
2018-01-17T03:57:58.081Z,85.90
2018-01-17T04:00:27.323Z,86.50
2018-01-17T04:02:55.763Z,86.50
2018-01-17T04:05:24.981Z,86.10
2018-01-17T04:07:53.446Z,86.10
2018-01-17T04:10:22.713Z,86.10
2018-01-17T04:12:51.183Z,86.10
2018-01-17T04:15:19.629Z,86.00
2018-01-17T04:17:47.903Z,86.10
2018-01-17T04:20:17.140Z,85.90
2018-01-17T04:22:45.585Z,85.80
2018-01-17T04:25:14.064Z,85.70
2018-01-17T04:27:43.863Z,85.90
2018-01-17T04:30:12.838Z,85.80
2018-01-17T04:32:41.271Z,85.90
2018-01-17T04:35:09.739Z,85.80
2018-01-17T04:37:38.004Z,86.10
2018-01-17T04:40:06.471Z,86.10
2018-01-17T04:42:34.936Z,86.10
2018-01-17T04:45:03.380Z,86.10
2018-01-17T04:47:31.522Z,86.10
2018-01-17T04:49:59.968Z,85.90
2018-01-17T04:52:28.444Z,86.10
2018-01-17T04:54:56.906Z,86.30
2018-01-17T04:57:25.793Z,86.30
2018-01-17T04:59:55.017Z,86.20
2018-01-17T05:02:23.482Z,86.20
2018-01-17T05:04:52.095Z,86.40
2018-01-17T05:07:20.533Z,86.20
2018-01-17T05:09:49.753Z,86.40
2018-01-17T05:12:18.229Z,87.10
2018-01-17T05:14:46.727Z,86.00
2018-01-17T05:17:15.938Z,86.00
2018-01-17T05:19:44.592Z,86.00
2018-01-17T05:22:13.060Z,86.10
2018-01-17T05:24:42.289Z,86.00
2018-01-17T05:27:10.755Z,86.10
2018-01-17T05:29:39.231Z,85.90
2018-01-17T05:32:07.706Z,85.80
2018-01-17T05:34:36.155Z,85.50
2018-01-17T05:37:04.672Z,85.50
2018-01-17T05:39:33.152Z,85.60
2018-01-17T05:42:01.631Z,85.30
2018-01-17T05:44:30.082Z,85.30
2018-01-17T05:46:59.326Z,85.10
2018-01-17T05:49:27.929Z,85.10
2018-01-17T05:51:56.368Z,85.00
2018-01-17T05:54:24.828Z,85.10
2018-01-17T05:56:54.079Z,85.30
2018-01-17T05:59:23.319Z,85.30
2018-01-17T06:01:52.559Z,85.30
2018-01-17T06:04:21.021Z,85.30
2018-01-17T06:06:49.512Z,85.30
2018-01-17T06:09:17.982Z,85.40
2018-01-17T06:11:47.168Z,85.20
2018-01-17T06:14:15.643Z,85.60
2018-01-17T06:16:44.116Z,85.70
2018-01-17T06:19:13.331Z,85.50
2018-01-17T06:21:41.803Z,85.50
2018-01-17T06:24:10.285Z,85.50
2018-01-17T06:26:38.775Z,85.40
2018-01-17T06:29:07.225Z,85.40
2018-01-17T06:31:36.278Z,85.40
2018-01-17T06:34:04.896Z,85.40
2018-01-17T06:36:34.126Z,85.80
2018-01-17T06:39:02.265Z,85.70
2018-01-17T06:41:31.510Z,85.20
2018-01-17T06:44:00.029Z,85.20
2018-01-17T06:46:28.476Z,85.20
2018-01-17T06:48:56.949Z,85.00
2018-01-17T06:51:25.411Z,84.80
2018-01-17T06:53:53.871Z,85.00
2018-01-17T06:56:22.905Z,85.30
2018-01-17T06:58:51.358Z,85.30
2018-01-17T07:01:19.828Z,85.30
2018-01-17T07:03:48.322Z,85.40
2018-01-17T07:06:16.912Z,85.20
2018-01-17T07:08:45.593Z,85.10
2018-01-17T07:11:14.072Z,85.00
2018-01-17T07:13:42.381Z,84.80
2018-01-17T07:16:10.848Z,84.80
2018-01-17T07:18:39.332Z,84.90
2018-01-17T07:21:07.822Z,84.90
2018-01-17T07:23:36.296Z,84.70
2018-01-17T07:26:04.745Z,85.30
2018-01-17T07:28:33.238Z,85.20
2018-01-17T07:31:01.736Z,85.00
2018-01-17T07:33:30.227Z,85.80
2018-01-17T07:35:58.708Z,84.80
2018-01-17T07:38:27.173Z,84.80
2018-01-17T07:40:55.641Z,85.00
2018-01-17T07:43:24.122Z,84.90
2018-01-17T07:45:52.607Z,85.10
2018-01-17T07:48:21.067Z,84.90
2018-01-17T07:50:49.547Z,84.80
2018-01-17T07:53:18.021Z,84.70
2018-01-17T07:55:47.317Z,84.70
2018-01-17T07:58:15.799Z,84.70
2018-01-17T08:00:44.253Z,84.00
2018-01-17T08:03:14.132Z,84.70
2018-01-17T08:05:42.594Z,84.50
2018-01-17T08:08:11.103Z,84.70
2018-01-17T08:10:39.647Z,84.40
2018-01-17T08:13:08.276Z,84.50
2018-01-17T08:15:36.726Z,84.50
2018-01-17T08:18:04.865Z,84.60
2018-01-17T08:20:33.317Z,84.60
2018-01-17T08:23:01.993Z,84.60
2018-01-17T08:25:30.456Z,84.50
2018-01-17T08:27:58.963Z,84.50
2018-01-17T08:30:28.200Z,84.60
2018-01-17T08:32:56.677Z,84.60
2018-01-17T08:35:25.166Z,84.60
2018-01-17T08:37:53.654Z,84.60
2018-01-17T08:40:22.129Z,84.50
2018-01-17T08:42:50.996Z,84.70
2018-01-17T08:45:19.435Z,84.50
2018-01-17T08:47:47.962Z,84.50
2018-01-17T08:50:17.270Z,84.20
2018-01-17T08:52:45.761Z,84.60
2018-01-17T08:55:14.221Z,84.50
2018-01-17T08:57:42.668Z,84.40
2018-01-17T09:00:11.901Z,84.40
2018-01-17T09:02:41.393Z,84.30
2018-01-17T09:05:09.865Z,84.30
2018-01-17T09:07:39.078Z,83.90
2018-01-17T09:10:07.553Z,83.90
2018-01-17T09:12:36.009Z,84.20
2018-01-17T09:15:05.258Z,84.00
2018-01-17T09:17:33.707Z,84.00
2018-01-17T09:20:02.168Z,83.90
2018-01-17T09:22:32.404Z,83.90
2018-01-17T09:25:00.851Z,83.80
2018-01-17T09:27:29.340Z,83.60
2018-01-17T09:29:57.803Z,83.70
2018-01-17T09:32:27.236Z,83.60
2018-01-17T09:34:56.489Z,83.80
2018-01-17T09:37:24.996Z,83.80
2018-01-17T09:39:53.444Z,83.60
2018-01-17T09:42:22.878Z,83.10
2018-01-17T09:44:51.393Z,83.40
2018-01-17T09:47:19.855Z,82.50
2018-01-17T09:49:49.075Z,82.80
2018-01-17T09:52:18.539Z,82.80
2018-01-17T09:54:47.013Z,83.30
2018-01-17T09:57:16.044Z,83.70
2018-01-17T09:59:44.769Z,83.00
2018-01-17T10:02:13.247Z,83.20
2018-01-17T10:04:41.716Z,82.70
2018-01-17T10:07:10.178Z,82.90
2018-01-17T10:09:38.637Z,83.00
2018-01-17T10:12:08.019Z,83.00
2018-01-17T10:14:36.486Z,83.10
2018-01-17T10:17:04.626Z,83.00
2018-01-17T10:19:33.110Z,82.50
2018-01-17T10:22:02.329Z,83.20
2018-01-17T10:24:30.820Z,83.20
2018-01-17T10:26:59.321Z,83.10
2018-01-17T10:29:28.704Z,83.10
2018-01-17T10:31:57.190Z,83.00
2018-01-17T10:34:25.666Z,82.40
2018-01-17T10:36:54.212Z,82.70
2018-01-17T10:39:22.662Z,82.70
2018-01-17T10:41:51.175Z,82.70
2018-01-17T10:44:19.644Z,82.70
2018-01-17T10:46:48.165Z,82.40
2018-01-17T10:49:17.300Z,82.60
2018-01-17T10:51:45.764Z,82.80
2018-01-17T10:54:15.605Z,82.60
2018-01-17T10:56:44.052Z,82.60
2018-01-17T10:59:13.304Z,82.80
2018-01-17T11:01:41.757Z,82.80
2018-01-17T11:04:10.248Z,83.00
2018-01-17T11:06:38.720Z,83.10
2018-01-17T11:09:07.169Z,83.20
2018-01-17T11:11:36.430Z,83.10
2018-01-17T11:14:04.885Z,83.00
2018-01-17T11:16:33.337Z,83.40
2018-01-17T11:19:01.809Z,83.10
2018-01-17T11:21:31.054Z,83.00
2018-01-17T11:23:59.520Z,83.00
2018-01-17T11:26:27.969Z,82.40
2018-01-17T11:28:57.176Z,82.60
2018-01-17T11:31:26.149Z,82.70
2018-01-17T11:33:55.390Z,82.60
2018-01-17T11:36:23.860Z,82.60
2018-01-17T11:38:52.350Z,82.70
2018-01-17T11:41:20.799Z,82.60
2018-01-17T11:43:49.277Z,82.90
2018-01-17T11:46:17.801Z,82.60
2018-01-17T11:48:46.262Z,82.70
2018-01-17T11:51:14.825Z,83.00
2018-01-17T11:53:43.282Z,82.70
2018-01-17T11:56:12.546Z,82.60
2018-01-17T11:58:41.030Z,82.50
2018-01-17T12:01:09.489Z,82.80
2018-01-17T12:03:37.940Z,82.60
2018-01-17T12:06:06.442Z,82.70
2018-01-17T12:08:34.932Z,82.70
2018-01-17T12:11:03.408Z,82.70
2018-01-17T12:13:31.862Z,82.60
2018-01-17T12:16:01.350Z,82.30
2018-01-17T12:18:30.591Z,82.50
2018-01-17T12:20:59.046Z,82.50
2018-01-17T12:23:27.499Z,82.50
2018-01-17T12:25:56.750Z,82.20
2018-01-17T12:28:25.251Z,82.10
2018-01-17T12:30:53.732Z,81.60
2018-01-17T12:33:22.188Z,81.60
2018-01-17T12:35:50.793Z,82.00
2018-01-17T12:38:19.264Z,81.80
2018-01-17T12:40:47.723Z,81.90
2018-01-17T12:43:16.320Z,81.70
2018-01-17T12:45:44.805Z,81.90
2018-01-17T12:48:13.253Z,81.80
2018-01-17T12:50:41.731Z,82.10
2018-01-17T12:53:10.217Z,82.00
2018-01-17T12:55:38.724Z,81.90
2018-01-17T12:58:07.220Z,81.80
2018-01-17T13:00:35.342Z,82.10
2018-01-17T13:03:03.836Z,81.80
2018-01-17T13:05:32.288Z,81.90
2018-01-17T13:08:01.509Z,81.90
2018-01-17T13:10:29.998Z,82.70
2018-01-17T13:12:58.460Z,82.20
2018-01-17T13:15:26.939Z,81.90
2018-01-17T13:17:55.404Z,82.30
2018-01-17T13:20:24.642Z,81.90
2018-01-17T13:22:53.121Z,81.80
2018-01-17T13:25:21.568Z,81.50
2018-01-17T13:27:50.497Z,81.80
2018-01-17T13:30:18.950Z,81.80
2018-01-17T13:32:48.409Z,81.50
2018-01-17T13:35:17.038Z,81.90
2018-01-17T13:37:45.784Z,82.10
2018-01-17T13:40:14.254Z,82.10
2018-01-17T13:42:42.705Z,82.00
2018-01-17T13:45:11.218Z,81.60
2018-01-17T13:47:39.703Z,82.30
2018-01-17T13:50:08.189Z,81.90
2018-01-17T13:52:36.681Z,82.00
2018-01-17T13:55:05.919Z,82.00
2018-01-17T13:57:34.421Z,82.00
2018-01-17T14:00:02.891Z,81.90
2018-01-17T14:02:31.340Z,82.00
2018-01-17T14:04:59.848Z,81.90
2018-01-17T14:07:28.296Z,81.90
2018-01-17T14:09:56.768Z,81.70
2018-01-17T14:12:26.134Z,81.60
2018-01-17T14:14:54.606Z,81.50
2018-01-17T14:17:23.069Z,81.90
2018-01-17T14:19:51.533Z,81.80
2018-01-17T14:22:19.999Z,81.90
2018-01-17T14:24:49.920Z,82.00
2018-01-17T14:27:18.392Z,82.00
2018-01-17T14:29:48.596Z,81.60
2018-01-17T14:32:17.846Z,81.80
2018-01-17T14:34:46.435Z,81.80
2018-01-17T14:37:16.394Z,81.60
2018-01-17T14:39:46.332Z,81.70
2018-01-17T14:42:14.944Z,81.60
2018-01-17T14:44:43.429Z,81.60
2018-01-17T14:47:11.889Z,81.30
2018-01-17T14:49:40.343Z,81.20
2018-01-17T14:52:09.603Z,81.10
2018-01-17T14:54:38.059Z,81.00
2018-01-17T14:57:06.520Z,81.30
2018-01-17T14:59:35.014Z,81.50
2018-01-17T15:02:03.970Z,81.70
2018-01-17T15:04:33.187Z,81.70
2018-01-17T15:07:01.642Z,81.70
2018-01-17T15:09:30.900Z,82.20
2018-01-17T15:11:59.420Z,81.40
2018-01-17T15:14:28.644Z,81.50
2018-01-17T15:16:56.927Z,81.50
2018-01-17T15:19:25.219Z,81.60
2018-01-17T15:21:53.505Z,81.60
2018-01-17T15:24:21.770Z,81.20
2018-01-17T15:26:50.084Z,81.50
2018-01-17T15:29:18.469Z,82.00
2018-01-17T15:31:47.225Z,81.90
2018-01-17T15:34:16.394Z,82.20
2018-01-17T15:36:44.911Z,82.20
2018-01-17T15:39:13.385Z,82.50
2018-01-17T15:41:41.828Z,82.70
2018-01-17T15:44:10.327Z,82.90
2018-01-17T15:46:38.789Z,82.70
2018-01-17T15:49:07.387Z,83.80
2018-01-17T15:51:37.181Z,82.80
2018-01-17T15:54:05.652Z,82.90
2018-01-17T15:56:34.883Z,83.00
2018-01-17T15:59:03.344Z,83.00
2018-01-17T16:01:31.797Z,82.90
2018-01-17T16:04:01.316Z,82.70
2018-01-17T16:06:29.830Z,82.80
2018-01-17T16:08:58.461Z,82.70
2018-01-17T16:11:27.684Z,83.20
2018-01-17T16:13:56.162Z,83.20
2018-01-17T16:16:24.681Z,83.40
2018-01-17T16:18:53.150Z,83.50
2018-01-17T16:21:21.599Z,83.80
2018-01-17T16:23:50.129Z,83.80
2018-01-17T16:26:18.577Z,83.80
2018-01-17T16:28:47.122Z,84.40
2018-01-17T16:31:17.332Z,83.90
2018-01-17T16:33:46.378Z,83.90
2018-01-17T16:36:14.958Z,83.90
2018-01-17T16:38:43.433Z,83.90
2018-01-17T16:41:11.893Z,83.80
2018-01-17T16:43:40.380Z,83.80
2018-01-17T16:46:08.832Z,83.80
2018-01-17T16:48:38.092Z,83.80
2018-01-17T16:51:06.573Z,83.80
2018-01-17T16:53:35.054Z,83.90
2018-01-17T16:56:03.501Z,83.80
2018-01-17T16:58:32.149Z,83.80
2018-01-17T17:01:01.391Z,83.80
2018-01-17T17:03:29.534Z,83.70
2018-01-17T17:05:58.774Z,83.80
2018-01-17T17:08:27.254Z,83.80
2018-01-17T17:10:55.712Z,83.80
2018-01-17T17:13:24.157Z,83.80
2018-01-17T17:15:53.401Z,84.20
2018-01-17T17:18:21.848Z,84.10
2018-01-17T17:20:50.371Z,84.10
2018-01-17T17:23:18.833Z,84.10
2018-01-17T17:25:47.318Z,84.10
2018-01-17T17:28:16.226Z,83.90
2018-01-17T17:30:45.009Z,84.00
2018-01-17T17:33:13.648Z,84.10
2018-01-17T17:35:42.094Z,84.30
2018-01-17T17:38:10.595Z,84.30
2018-01-17T17:40:39.840Z,84.60
2018-01-17T17:43:08.321Z,84.60
2018-01-17T17:45:36.840Z,84.50
2018-01-17T17:48:05.319Z,84.40
2018-01-17T17:50:33.799Z,84.50
2018-01-17T17:53:02.300Z,84.80
2018-01-17T17:55:31.518Z,84.50
2018-01-17T17:57:59.991Z,84.50
2018-01-17T18:00:28.451Z,85.20
2018-01-17T18:02:57.685Z,84.20
2018-01-17T18:05:26.164Z,84.20
2018-01-17T18:07:54.630Z,84.10
2018-01-17T18:10:23.093Z,84.10
2018-01-17T18:12:52.334Z,84.00
2018-01-17T18:15:20.790Z,84.00
2018-01-17T18:17:49.285Z,84.00
2018-01-17T18:20:17.865Z,83.90
2018-01-17T18:22:46.405Z,84.70
2018-01-17T18:25:15.771Z,84.10
2018-01-17T18:27:44.381Z,85.00
2018-01-17T18:30:12.932Z,84.90
2018-01-17T18:32:41.469Z,85.00
2018-01-17T18:35:10.764Z,84.10
2018-01-17T18:37:39.424Z,85.00
2018-01-17T18:40:07.992Z,85.00
2018-01-17T18:42:36.597Z,84.70
2018-01-17T18:45:05.019Z,84.90
2018-01-17T18:47:34.385Z,84.40
2018-01-17T18:50:02.937Z,85.00
2018-01-17T18:52:31.500Z,85.30
2018-01-17T18:55:00.081Z,85.10
2018-01-17T18:57:28.620Z,85.20
2018-01-17T18:59:57.210Z,85.10
2018-01-17T19:02:26.590Z,84.40
2018-01-17T19:04:55.158Z,85.00
2018-01-17T19:07:23.721Z,85.30
2018-01-17T19:09:52.235Z,85.50
2018-01-17T19:12:20.751Z,85.30
2018-01-17T19:14:49.372Z,85.20
2018-01-17T19:17:30.158Z,85.40
2018-01-17T19:19:58.816Z,85.00
2018-01-17T19:22:28.141Z,84.40
2018-01-17T19:24:57.490Z,84.20
2018-01-17T19:27:26.086Z,84.80
2018-01-17T19:29:54.661Z,84.80
2018-01-17T19:32:23.089Z,85.30
2018-01-17T19:34:52.453Z,84.30
2018-01-17T19:37:21.005Z,85.20
2018-01-17T19:39:49.595Z,85.20
2018-01-17T19:42:18.146Z,84.70
2018-01-17T19:47:21.493Z,85.00
2018-01-17T19:49:50.838Z,84.10
2018-01-17T19:52:19.395Z,84.90
2018-01-17T19:54:47.948Z,84.80
2018-01-17T19:57:16.505Z,84.80
2018-01-17T19:59:45.071Z,84.80
2018-01-17T20:02:14.213Z,84.70
2018-01-17T20:04:42.761Z,84.80
2018-01-17T20:07:11.299Z,84.60
2018-01-17T20:09:40.621Z,84.90
2018-01-17T20:12:09.242Z,84.70
2018-01-17T20:14:37.787Z,85.00
2018-01-17T20:17:06.419Z,84.60
2018-01-17T20:19:36.246Z,84.10
2018-01-17T20:22:05.121Z,84.90
2018-01-17T20:24:36.090Z,84.60
2018-01-17T20:27:04.315Z,85.30
2018-01-17T20:29:34.813Z,83.80
2018-01-17T20:32:03.391Z,84.80
2018-01-17T20:34:31.948Z,84.30
2018-01-17T20:37:00.533Z,84.90
2018-01-17T20:39:34.481Z,84.50
2018-01-17T20:42:03.096Z,84.80
2018-01-17T20:47:11.961Z,84.40
2018-01-17T20:49:41.077Z,83.80
2018-01-17T20:52:09.679Z,84.70
2018-01-17T20:54:39.018Z,83.80
2018-01-17T20:57:08.344Z,83.80
2018-01-17T20:59:37.449Z,83.60
2018-01-17T21:02:06.915Z,84.20
2018-01-17T21:04:35.453Z,84.60
2018-01-17T21:07:04.170Z,84.40
2018-01-17T21:09:32.704Z,84.80
2018-01-17T21:12:01.292Z,84.40
2018-01-17T21:14:29.875Z,84.80
2018-01-17T21:16:58.418Z,84.70
2018-01-17T21:19:27.013Z,84.10
2018-01-17T21:21:55.588Z,84.10
2018-01-17T21:24:25.681Z,84.40
2018-01-17T21:26:54.226Z,84.20
2018-01-17T21:29:23.591Z,83.60
2018-01-17T21:31:52.232Z,84.30
2018-01-17T21:34:20.797Z,85.00
2018-01-17T21:36:49.407Z,84.30
2018-01-17T21:41:51.615Z,84.50
2018-01-17T21:44:26.545Z,83.50
2018-01-17T21:46:55.178Z,84.10
2018-01-17T21:49:24.528Z,83.40
2018-01-17T21:51:53.305Z,83.50
2018-01-17T21:54:42.312Z,84.20
2018-01-17T21:57:10.911Z,85.00
2018-01-17T21:59:40.376Z,83.80
2018-01-17T22:02:09.762Z,84.30
2018-01-17T22:04:38.464Z,84.60
2018-01-17T22:07:09.810Z,84.80
2018-01-17T22:09:38.444Z,84.30
2018-01-17T22:12:09.868Z,84.70
2018-01-17T22:14:44.009Z,84.00
2018-01-17T22:17:12.746Z,84.80
2018-01-17T22:19:41.312Z,85.40
2018-01-17T22:22:10.891Z,85.00
2018-01-17T22:24:41.993Z,84.50
2018-01-17T22:27:10.578Z,84.90
2018-01-17T22:29:38.934Z,85.30
2018-01-17T22:32:10.181Z,83.70
2018-01-17T22:34:40.845Z,84.40
2018-01-17T22:37:09.938Z,84.40
2018-01-17T22:39:38.746Z,83.90
2018-01-17T22:42:12.950Z,83.70
2018-01-17T22:44:42.214Z,84.40
2018-01-17T22:47:12.501Z,85.50
2018-01-17T22:49:52.076Z,85.10
2018-01-17T22:52:22.375Z,83.70
2018-01-17T22:54:52.645Z,84.00
2018-01-17T22:57:22.510Z,84.60
2018-01-17T22:59:53.452Z,84.00
2018-01-17T23:02:25.011Z,85.30
2018-01-17T23:04:54.633Z,85.50
2018-01-17T23:07:23.230Z,85.10
2018-01-17T23:12:36.167Z,85.80
2018-01-17T23:15:05.412Z,84.30
2018-01-17T23:17:36.989Z,84.70
2018-01-17T23:20:08.473Z,85.10
2018-01-17T23:22:38.422Z,85.20
2018-01-17T23:25:07.673Z,84.60
2018-01-17T23:27:36.637Z,84.30
2018-01-17T23:30:11.776Z,84.90
2018-01-17T23:32:40.412Z,85.10
2018-01-17T23:35:09.208Z,85.20
2018-01-17T23:37:38.708Z,85.30
2018-01-17T23:40:09.819Z,85.00
2018-01-17T23:42:39.077Z,85.30
2018-01-17T23:45:11.152Z,85.00
2018-01-17T23:47:40.536Z,84.70
2018-01-17T23:50:17.480Z,85.50
2018-01-17T23:52:50.903Z,85.20
2018-01-17T23:55:22.295Z,85.50
2018-01-17T23:57:51.756Z,85.80
